< < Back
Terminal Aerodrome Forecast


Current Version              Previous Versions:   1  2  3  4  5  6  7  8  9  

Terminal Aerodrome Forecast

096
FTUS42 KTAE 250500
TAFDHN
TAF
KDHN 250538Z 2506/2606 23004KT 6SM BR BKN007
     FM251000 22004KT 5SM BR BKN003
     FM251400 27010G15KT P6SM SCT035
     FM251600 27015G20KT P6SM SCT040
     FM260100 28005KT P6SM SKC=



Latest METAR

465
SAUS70 KWBC 250900 RRF
MTRDHN
METAR KDHN 250853Z AUTO 25008KT 9SM BKN013 OVC018 19/17 A2997 RMK AO2
SLP143 T01890172 51001


USA.gov is the U.S. government's official web portal to all federal, state and local government web resources and services.